ADDS METAR Data INFO
IDs: Format: Raw Decoded Include TAF

Data at: 1806 UTC 18 Feb 2018

K4I3 181755Z AUTO 21005KT 10SM SCT027 04/M01 A3035 RMK AO2
K4I3 181735Z AUTO 17008KT 10SM SCT023 04/M01 A3035 RMK AO2
K4I3 181715Z AUTO 15005KT 10SM SCT023 04/M01 A3035 RMK AO2
K4I3 181655Z AUTO 15004KT 10SM SCT023 03/M01 A3035 RMK AO2
K4I3 181635Z AUTO 16006KT 10SM CLR 03/M01 A3035 RMK AO2
K4I3 181615Z AUTO 18003KT 10SM CLR 02/M02 A3036 RMK AO2
K4I3 181555Z AUTO 16004KT 10SM SCT022 02/M02 A3036 RMK AO2
K4I3 181535Z AUTO 00000KT 10SM BKN022 02/M03 A3036 RMK AO2
K4I3 181515Z AUTO 00000KT 10SM BKN022 01/M02 A3035 RMK AO2
K4I3 181455Z AUTO 00000KT 10SM OVC022 01/M03 A3036 RMK AO2
K4I3 181435Z AUTO 00000KT 10SM BKN024 01/M03 A3035 RMK AO2
K4I3 181415Z AUTO 00000KT 10SM BKN024 01/M03 A3036 RMK AO2
K4I3 181355Z AUTO 00000KT 10SM BKN024 00/M03 A3035 RMK AO2
K4I3 181335Z AUTO 00000KT 10SM BKN024 00/M03 A3034 RMK AO2
K4I3 181315Z AUTO 00000KT 10SM OVC024 00/M03 A3034 RMK AO2
K4I3 181255Z AUTO 00000KT 10SM OVC024 00/M03 A3033 RMK AO2
K4I3 181235Z AUTO 31004KT 10SM OVC024 00/M02 A3032 RMK AO2
K4I3 181215Z AUTO 33004KT 10SM OVC026 00/M02 A3031 RMK AO2
K4I3 181155Z AUTO 31005KT 10SM OVC028 00/M02 A3030 RMK AO2
K4I3 181135Z AUTO 29006KT 10SM OVC028 00/M02 A3030 RMK AO2
K4I3 181115Z AUTO 29004KT 10SM OVC030 00/M02 A3030 RMK AO2
K4I3 181055Z AUTO 30007KT 10SM OVC030 00/M02 A3028 RMK AO2
K4I3 181035Z AUTO 29007KT 10SM OVC030 00/M02 A3027 RMK AO2
K4I3 181015Z AUTO 28008KT 10SM SCT023 OVC030 00/M01 A3027 RMK AO2
K4I3 180955Z AUTO 29010KT 10SM OVC023 00/M01 A3024 RMK AO2
K4I3 180935Z AUTO 29011G17KT 10SM OVC023 00/M01 A3022 RMK AO2
K4I3 180915Z AUTO 28012G18KT 10SM OVC023 00/M01 A3021 RMK AO2
K4I3 180855Z AUTO 28008KT 10SM BKN025 OVC030 01/M01 A3020 RMK AO2
K4I3 180835Z AUTO 29011KT 10SM SCT015 BKN024 OVC029 01/M00 A3019 RMK AO2
K4I3 180815Z AUTO 28013G19KT 10SM OVC015 01/00 A3018 RMK AO2
K4I3 180755Z AUTO 28009G14KT 10SM BKN017 OVC024 01/00 A3016 RMK AO2
K4I3 180735Z AUTO 26009G16KT 10SM SCT016 SCT021 OVC026 01/00 A3015 RMK AO2
K4I3 180715Z AUTO 27013G17KT 10SM BKN016 BKN020 OVC031 01/00 A3014 RMK AO2
K4I3 180655Z AUTO 28015G22KT 10SM SCT010 BKN016 OVC033 01/00 A3012 RMK AO2
K4I3 180635Z AUTO 27013G21KT 10SM BKN013 OVC018 01/01 A3010 RMK AO2
K4I3 180615Z AUTO 27013G18KT 4SM -SN OVC013 01/01 A3009 RMK AO2
K4I3 180555Z AUTO 26010G15KT 10SM OVC013 01/01 A3007 RMK AO2
K4I3 180535Z AUTO 26011G16KT 10SM BKN008 OVC013 01/01 A3005 RMK AO2
K4I3 180515Z AUTO 25010G18KT 7SM OVC008 01/01 A3005 RMK AO2
K4I3 180455Z AUTO 24008G16KT 5SM BR BKN006 OVC010 01/01 A3004 RMK AO2
K4I3 180435Z AUTO 25009KT 7SM BKN005 OVC012 01/01 A3004 RMK AO2
K4I3 180415Z AUTO 24008KT 2 1/2SM -SN OVC005 00/00 A3003 RMK AO2
K4I3 180355Z AUTO 24008KT 2SM -SN OVC003 00/00 A3003 RMK AO2
K4I3 180335Z AUTO 23004KT 1 1/2SM -SN OVC003 00/00 A3002 RMK AO2
K4I3 180315Z AUTO 22004KT 2 1/2SM -SN OVC003 00/00 A3001 RMK AO2
K4I3 180255Z AUTO 23005KT 2 1/2SM -SN OVC003 00/00 A3002 RMK AO2
K4I3 180235Z AUTO 20004KT 3SM BR OVC003 00/00 A3001 RMK AO2
K4I3 180215Z AUTO 22003KT 3SM -SN OVC003 00/00 A3002 RMK AO2
K4I3 180155Z AUTO 21003KT 2SM -SN OVC003 00/00 A3001 RMK AO2
K4I3 180135Z AUTO 21003KT 2SM -SN OVC003 00/00 A3002 RMK AO2
K4I3 180115Z AUTO 20003KT 1 1/2SM -SN OVC005 00/00 A3002 RMK AO2
K4I3 180055Z AUTO 00000KT 1 3/4SM -SN OVC005 00/00 A3002 RMK AO2 P0001
K4I3 180035Z AUTO 00000KT 1 1/2SM -SN OVC007 00/00 A3002 RMK AO2 P0001
K4I3 180015Z AUTO 00000KT 1 1/2SM -SN OVC007 M00/M00 A3002 RMK AO2 P0001
K4I3 172355Z AUTO 00000KT 1 3/4SM -SN OVC002 M00/M00 A3002 RMK AO2
K4I3 172335Z AUTO 00000KT 1 3/4SM UP OVC002 M00/M00 A3000 RMK AO2
K4I3 172315Z AUTO 18003KT 1SM UP OVC004 M00/M00 A3000 RMK AO2
K4I3 172255Z AUTO 00000KT 1SM -SN OVC004 M00/M00 A3001 RMK AO2
K4I3 172235Z AUTO 00000KT 2SM -SN BKN004 OVC014 M00/M00 A3000 RMK AO2
K4I3 172215Z AUTO 17003KT 3SM BR SCT004 BKN008 OVC045 M00/M00 A3000 RMK AO2
K4I3 172155Z AUTO 16003KT 2SM -SN BKN004 OVC009 M01/M01 A2999 RMK AO2
K4I3 172135Z AUTO 13004KT 1 1/2SM -SN OVC004 M01/M01 A2998 RMK AO2
K4I3 172115Z AUTO 15003KT 1 1/4SM -SN OVC006 M01/M01 A3000 RMK AO2
K4I3 172055Z AUTO 12003KT 1 1/4SM -SN OVC008 M01/M01 A3000 RMK AO2
K4I3 172035Z AUTO 13003KT 1 1/4SM -SN OVC008 M00/M01 A3001 RMK AO2
K4I3 172015Z AUTO 15003KT 2SM -SN BKN008 OVC017 M00/M02 A3001 RMK AO2
K4I3 171955Z AUTO 16004KT 3SM -SN BKN010 BKN016 OVC024 00/M02 A3002 RMK AO2
K4I3 171935Z AUTO 00000KT 10SM BKN024 BKN030 00/M03 A3003 RMK AO2
K4I3 171915Z AUTO 16004KT 10SM BKN028 00/M03 A3004 RMK AO2
K4I3 171856Z AUTO 16006KT 10SM BKN028 00/M03 A3005 RMK AO2
K4I3 171835Z AUTO 15006KT 10SM SCT028 00/M03 A3005 RMK AO2
K4I3 171815Z AUTO 15005KT 10SM CLR 00/M03 A3006 RMK AO2
K4I3 171756Z AUTO 14006KT 10SM CLR 00/M03 A3008 RMK AO2
K4I3 171735Z AUTO 14005KT 10SM CLR M00/M03 A3011 RMK AO2
K4I3 171715Z AUTO 13004KT 10SM CLR M00/M03 A3011 RMK AO2
K4I3 171655Z AUTO 14003KT 10SM CLR M00/M03 A3012 RMK AO2
K4I3 171635Z AUTO 00000KT 10SM SCT026 M00/M03 A3015 RMK AO2
K4I3 171615Z AUTO 14003KT 10SM SCT026 M01/M03 A3014 RMK AO2
K4I3 171555Z AUTO 12005KT 10SM SCT026 M00/M03 A3012 RMK AO2
K4I3 171535Z AUTO 13005KT 10SM SCT026 M01/M03 A3015 RMK AO2
K4I3 171515Z AUTO 13006KT 10SM SCT026 M01/M04 A3015 RMK AO2
K4I3 171455Z AUTO 12003KT 10SM SCT026 M01/M04 A3018 RMK AO2
K4I3 171435Z AUTO 00000KT 10SM SCT026 M01/M04 A3020 RMK AO2
K4I3 171415Z AUTO 12003KT 10SM CLR M01/M04 A3020 RMK AO2
K4I3 171355Z AUTO 14004KT 10SM CLR M02/M04 A3021 RMK AO2
K4I3 171335Z AUTO 14004KT 10SM CLR M02/M04 A3021 RMK AO2
K4I3 171315Z AUTO 13004KT 10SM CLR M02/M04 A3020 RMK AO2
K4I3 171255Z AUTO 13005KT 10SM BKN030 M02/M05 A3021 RMK AO2
K4I3 171235Z AUTO 12003KT 10SM OVC030 M02/M05 A3021 RMK AO2
K4I3 171215Z AUTO 14005KT 10SM OVC030 M02/M04 A3022 RMK AO2
K4I3 171155Z AUTO 14005KT 10SM OVC030 M02/M04 A3023 RMK AO2
K4I3 171135Z AUTO 13007KT 10SM OVC030 M02/M04 A3023 RMK AO2
K4I3 171115Z AUTO 14008KT 10SM OVC030 M02/M04 A3023 RMK AO2
K4I3 171055Z AUTO 14004KT 10SM OVC030 M01/M03 A3025 RMK AO2
K4I3 171035Z AUTO 14003KT 10SM SCT021 OVC026 M01/M02 A3025 RMK AO2
K4I3 171015Z AUTO 11003KT 10SM OVC026 M02/M02 A3025 RMK AO2
K4I3 170955Z AUTO 00000KT 10SM OVC026 M02/M02 A3026 RMK AO2
K4I3 170935Z AUTO 00000KT 10SM OVC028 M02/M02 A3026 RMK AO2
K4I3 170915Z AUTO 00000KT 10SM OVC030 M02/M02 A3026 RMK AO2
K4I3 170855Z AUTO 00000KT 10SM OVC030 M02/M02 A3026 RMK AO2
K4I3 170835Z AUTO 00000KT 10SM OVC030 M02/M03 A3026 RMK AO2
K4I3 170815Z AUTO 00000KT 10SM OVC032 M02/M03 A3026 RMK AO2
K4I3 170755Z AUTO 19003KT 10SM OVC030 M02/M03 A3027 RMK AO2
K4I3 170735Z AUTO 00000KT 10SM BKN030 M02/M03 A3026 RMK AO2
K4I3 170715Z AUTO 00000KT 10SM CLR M02/M03 A3025 RMK AO2
K4I3 170655Z AUTO 00000KT 10SM SCT032 M02/M03 A3026 RMK AO2
K4I3 170635Z AUTO 32003KT 10SM BKN032 M01/M03 A3026 RMK AO2
K4I3 170615Z AUTO 32004KT 10SM OVC032 M01/M03 A3027 RMK AO2